sensor_id;sensor_type;location;lat;lon;timestamp;pressure;altitude;pressure_sealevel;temperature;humidity
42003;BME280;27693;50.506;30.832;2023-02-15T00:00:25;100564.53;;;0.64;65.69
42003;BME280;27693;50.506;30.832;2023-02-15T00:01:28;100561.93;;;0.59;65.97
42003;BME280;27693;50.506;30.832;2023-02-15T00:02:30;100569.66;;;0.64;66.17
42003;BME280;27693;50.506;30.832;2023-02-15T00:03:32;100569.61;;;0.59;66.06
42003;BME280;27693;50.506;30.832;2023-02-15T00:04:34;100571.28;;;0.56;66.33
42003;BME280;27693;50.506;30.832;2023-02-15T00:05:50;100565.22;;;0.44;66.52
42003;BME280;27693;50.506;30.832;2023-02-15T00:06:53;100569.59;;;0.55;66.94
42003;BME280;27693;50.506;30.832;2023-02-15T00:07:58;100555.12;;;0.58;66.53
42003;BME280;27693;50.506;30.832;2023-02-15T00:09:00;100555.12;;;0.58;66.53
42003;BME280;27693;50.506;30.832;2023-02-15T00:10:03;100575.61;;;0.61;66.51
42003;BME280;27693;50.506;30.832;2023-02-15T00:11:13;100556.80;;;0.52;66.77
42003;BME280;27693;50.506;30.832;2023-02-15T00:12:14;100556.80;;;0.55;67.19
42003;BME280;27693;50.506;30.832;2023-02-15T00:13:18;100562.72;;;0.51;67.04
42003;BME280;27693;50.506;30.832;2023-02-15T00:14:22;100574.62;;;0.44;66.87
42003;BME280;27693;50.506;30.832;2023-02-15T00:15:25;100566.11;;;0.46;67.05
42003;BME280;27693;50.506;30.832;2023-02-15T00:16:28;100557.53;;;0.43;67.31
42003;BME280;27693;50.506;30.832;2023-02-15T00:17:31;100572.08;;;0.48;67.48
42003;BME280;27693;50.506;30.832;2023-02-15T00:18:34;100566.05;;;0.40;67.53
42003;BME280;27693;50.506;30.832;2023-02-15T00:19:37;100574.52;;;0.33;67.61
42003;BME280;27693;50.506;30.832;2023-02-15T00:20:39;100571.12;;;0.37;67.90
42003;BME280;27693;50.506;30.832;2023-02-15T00:21:41;100564.34;;;0.42;68.01
42003;BME280;27693;50.506;30.832;2023-02-15T00:22:44;100572.91;;;0.44;67.77
42003;BME280;27693;50.506;30.832;2023-02-15T00:23:46;100552.37;;;0.40;67.55
42003;BME280;27693;50.506;30.832;2023-02-15T00:24:49;100556.64;;;0.38;67.82
42003;BME280;27693;50.506;30.832;2023-02-15T00:26:07;100572.84;;;0.38;67.76
42003;BME280;27693;50.506;30.832;2023-02-15T00:27:08;100565.17;;;0.40;67.89
42003;BME280;27693;50.506;30.832;2023-02-15T00:28:10;100564.38;;;0.45;67.92
42003;BME280;27693;50.506;30.832;2023-02-15T00:29:16;100566.99;;;0.50;67.79
42003;BME280;27693;50.506;30.832;2023-02-15T00:30:19;100546.45;;;0.44;67.63
42003;BME280;27693;50.506;30.832;2023-02-15T00:31:22;100546.45;;;0.44;67.63
42003;BME280;27693;50.506;30.832;2023-02-15T00:32:24;100571.23;;;0.48;67.55
42003;BME280;27693;50.506;30.832;2023-02-15T00:33:27;100571.23;;;0.48;67.55
42003;BME280;27693;50.506;30.832;2023-02-15T00:34:30;100566.16;;;0.53;67.43
42003;BME280;27693;50.506;30.832;2023-02-15T00:35:32;100575.56;;;0.55;67.36
42003;BME280;27693;50.506;30.832;2023-02-15T00:36:34;100576.36;;;0.50;67.21
42003;BME280;27693;50.506;30.832;2023-02-15T00:37:36;100566.16;;;0.56;67.11
42003;BME280;27693;50.506;30.832;2023-02-15T00:38:38;100574.64;;;0.48;66.72
42003;BME280;27693;50.506;30.832;2023-02-15T00:39:41;100558.38;;;0.43;66.94
42003;BME280;27693;50.506;30.832;2023-02-15T00:40:43;100567.84;;;0.51;67.04
42003;BME280;27693;50.506;30.832;2023-02-15T00:41:46;100567.73;;;0.41;66.95
42003;BME280;27693;50.506;30.832;2023-02-15T00:42:48;100568.62;;;0.42;67.15
42003;BME280;27693;50.506;30.832;2023-02-15T00:43:51;100569.41;;;0.36;67.00
42003;BME280;27693;50.506;30.832;2023-02-15T00:44:53;100569.45;;;0.39;66.90
42003;BME280;27693;50.506;30.832;2023-02-15T00:45:55;100578.80;;;0.37;66.71
42003;BME280;27693;50.506;30.832;2023-02-15T00:46:58;100566.00;;;0.34;66.71
42003;BME280;27693;50.506;30.832;2023-02-15T00:48:01;100572.85;;;0.40;66.68
42003;BME280;27693;50.506;30.832;2023-02-15T00:49:04;100572.90;;;0.43;66.92
42003;BME280;27693;50.506;30.832;2023-02-15T00:50:08;100574.62;;;0.45;66.54
42003;BME280;27693;50.506;30.832;2023-02-15T00:51:12;100566.99;;;0.50;66.66
42003;BME280;27693;50.506;30.832;2023-02-15T00:52:15;100572.95;;;0.51;66.33
42003;BME280;27693;50.506;30.832;2023-02-15T00:53:18;100571.28;;;0.56;66.07
42003;BME280;27693;50.506;30.832;2023-02-15T00:54:21;100572.12;;;0.52;65.74
42003;BME280;27693;50.506;30.832;2023-02-15T00:55:24;100578.12;;;0.54;65.78
42003;BME280;27693;50.506;30.832;2023-02-15T00:56:27;100572.11;;;0.50;66.05
42003;BME280;27693;50.506;30.832;2023-02-15T00:57:30;100581.53;;;0.56;65.81
42003;BME280;27693;50.506;30.832;2023-02-15T00:58:33;100570.39;;;0.49;65.46
42003;BME280;27693;50.506;30.832;2023-02-15T00:59:35;100583.94;;;0.39;65.58
42003;BME280;27693;50.506;30.832;2023-02-15T01:00:38;100589.03;;;0.34;65.87
42003;BME280;27693;50.506;30.832;2023-02-15T01:01:42;100572.84;;;0.38;66.24
42003;BME280;27693;50.506;30.832;2023-02-15T01:02:44;100588.30;;;0.47;66.23
42003;BME280;27693;50.506;30.832;2023-02-15T01:03:46;100574.64;;;0.48;65.98
42003;BME280;27693;50.506;30.832;2023-02-15T01:04:49;100571.23;;;0.50;65.95
42003;BME280;27693;50.506;30.832;2023-02-15T01:05:52;100584.08;;;0.51;66.26
42003;BME280;27693;50.506;30.832;2023-02-15T01:06:54;100569.45;;;0.39;65.83
42003;BME280;27693;50.506;30.832;2023-02-15T01:07:57;100572.11;;;0.50;66.28
42003;BME280;27693;50.506;30.832;2023-02-15T01:08:59;100577.18;;;0.44;65.54
42003;BME280;27693;50.506;30.832;2023-02-15T01:10:02;100578.86;;;0.42;65.03
42003;BME280;27693;50.506;30.832;2023-02-15T01:11:10;100581.47;;;0.46;65.00
42003;BME280;27693;50.506;30.832;2023-02-15T01:12:14;100587.48;;;0.53;65.08
42003;BME280;27693;50.506;30.832;2023-02-15T01:13:17;100576.41;;;0.56;64.94
42003;BME280;27693;50.506;30.832;2023-02-15T01:14:19;100571.23;;;0.50;64.92
42003;BME280;27693;50.506;30.832;2023-02-15T01:15:22;100578.92;;;0.50;64.55
42003;BME280;27693;50.506;30.832;2023-02-15T01:16:27;100580.64;;;0.51;64.81
42003;BME280;27693;50.506;30.832;2023-02-15T01:17:31;100590.09;;;0.55;64.87
42003;BME280;27693;50.506;30.832;2023-02-15T01:18:34;100585.80;;;0.54;64.65
42003;BME280;27693;50.506;30.832;2023-02-15T01:19:37;100588.41;;;0.58;64.75
42003;BME280;27693;50.506;30.832;2023-02-15T01:20:41;100584.98;;;0.59;64.16
42003;BME280;27693;50.506;30.832;2023-02-15T01:21:43;100583.30;;;0.60;64.09
42003;BME280;27693;50.506;30.832;2023-02-15T01:22:45;100576.45;;;0.59;63.81
42003;BME280;27693;50.506;30.832;2023-02-15T01:23:48;100583.30;;;0.60;63.76
42003;BME280;27693;50.506;30.832;2023-02-15T01:24:51;100587.44;;;0.48;63.34
42003;BME280;27693;50.506;30.832;2023-02-15T01:25:53;100590.09;;;0.55;63.51
42003;BME280;27693;50.506;30.832;2023-02-15T01:26:56;100584.09;;;0.54;63.62
42003;BME280;27693;50.506;30.832;2023-02-15T01:27:58;100585.86;;;0.60;63.54
42003;BME280;27693;50.506;30.832;2023-02-15T01:29:00;100586.70;;;0.59;63.31
42003;BME280;27693;50.506;30.832;2023-02-15T01:30:03;100590.98;;;0.61;63.46
42003;BME280;27693;50.506;30.832;2023-02-15T01:31:08;100587.59;;;0.64;63.43
42003;BME280;27693;50.506;30.832;2023-02-15T01:32:12;100586.70;;;0.59;63.66
42003;BME280;27693;50.506;30.832;2023-02-15T01:33:16;100584.97;;;0.58;63.97
42003;BME280;27693;50.506;30.832;2023-02-15T01:34:20;100584.92;;;0.53;64.30
42003;BME280;27693;50.506;30.832;2023-02-15T01:35:23;100585.80;;;0.54;64.50
42003;BME280;27693;50.506;30.832;2023-02-15T01:36:26;100584.09;;;0.54;64.65
42003;BME280;27693;50.506;30.832;2023-02-15T01:37:30;100585.02;;;0.61;65.09
42003;BME280;27693;50.506;30.832;2023-02-15T01:38:34;100585.77;;;0.52;64.87
42003;BME280;27693;50.506;30.832;2023-02-15T01:39:36;100586.70;;;0.59;65.17
42003;BME280;27693;50.506;30.832;2023-02-15T01:40:40;100584.88;;;0.48;65.13
42003;BME280;27693;50.506;30.832;2023-02-15T01:41:42;100578.97;;;0.54;65.62
42003;BME280;27693;50.506;30.832;2023-02-15T01:42:44;100585.02;;;0.61;65.73
42003;BME280;27693;50.506;30.832;2023-02-15T01:43:55;100590.19;;;0.67;65.55
42003;BME280;27693;50.506;30.832;2023-02-15T01:46:15;100591.92;;;0.71;64.61
42003;BME280;27693;50.506;30.832;2023-02-15T01:47:37;100591.81;;;0.59;64.06
42003;BME280;27693;50.506;30.832;2023-02-15T01:48:47;100580.69;;;0.55;63.96
42003;BME280;27693;50.506;30.832;2023-02-15T01:51:17;100586.70;;;0.59;63.83
42003;BME280;27693;50.506;30.832;2023-02-15T01:52:20;100586.59;;;0.50;64.01
42003;BME280;27693;50.506;30.832;2023-02-15T01:55:04;100587.47;;;0.50;64.49
42003;BME280;27693;50.506;30.832;2023-02-15T01:56:16;100589.25;;;0.59;64.35
42003;BME280;27693;50.506;30.832;2023-02-15T01:57:18;100598.55;;;0.47;64.42
42003;BME280;27693;50.506;30.832;2023-02-15T01:58:23;100590.09;;;0.55;64.36
42003;BME280;27693;50.506;30.832;2023-02-15T01:59:28;100587.53;;;0.59;64.54
42003;BME280;27693;50.506;30.832;2023-02-15T02:00:32;100595.16;;;0.52;64.67
42003;BME280;27693;50.506;30.832;2023-02-15T02:01:36;100597.67;;;0.48;64.64
42003;BME280;27693;50.506;30.832;2023-02-15T02:02:42;100595.12;;;0.48;64.62
42003;BME280;27693;50.506;30.832;2023-02-15T02:05:02;100602.00;;;0.53;64.89
42003;BME280;27693;50.506;30.832;2023-02-15T02:06:08;100594.23;;;0.45;64.85
42003;BME280;27693;50.506;30.832;2023-02-15T02:07:12;100602.84;;;0.52;65.07
42003;BME280;27693;50.506;30.832;2023-02-15T02:08:16;100597.78;;;0.59;65.28
42003;BME280;27693;50.506;30.832;2023-02-15T02:09:18;100600.39;;;0.64;65.34
42003;BME280;27693;50.506;30.832;2023-02-15T02:10:22;100599.60;;;0.71;64.93
42003;BME280;27693;50.506;30.832;2023-02-15T02:11:24;100604.73;;;0.73;64.63
42003;BME280;27693;50.506;30.832;2023-02-15T02:12:27;100595.38;;;0.76;64.79
42003;BME280;27693;50.506;30.832;2023-02-15T02:13:29;100599.55;;;0.67;63.82
42003;BME280;27693;50.506;30.832;2023-02-15T02:14:32;100607.23;;;0.65;63.81
42003;BME280;27693;50.506;30.832;2023-02-15T02:15:46;100592.70;;;0.61;63.94
42003;BME280;27693;50.506;30.832;2023-02-15T02:27:42;100598.66;;;0.60;63.08
42003;BME280;27693;50.506;30.832;2023-02-15T02:30:45;100598.60;;;0.54;62.65
42003;BME280;27693;50.506;30.832;2023-02-15T02:36:12;100607.14;;;0.56;63.26
42003;BME280;27693;50.506;30.832;2023-02-15T02:37:18;100599.50;;;0.59;63.52
42003;BME280;27693;50.506;30.832;2023-02-15T02:40:01;100601.27;;;0.65;63.25
42003;BME280;27693;50.506;30.832;2023-02-15T02:42:46;100600.44;;;0.70;63.01
42003;BME280;27693;50.506;30.832;2023-02-15T02:43:40;100600.44;;;0.67;62.87
42003;BME280;27693;50.506;30.832;2023-02-15T02:44:51;100598.72;;;0.69;62.52
42003;BME280;27693;50.506;30.832;2023-02-15T02:46:00;100601.22;;;0.61;62.54
42003;BME280;27693;50.506;30.832;2023-02-15T02:48:32;100598.67;;;0.63;62.55
42003;BME280;27693;50.506;30.832;2023-02-15T02:49:41;100605.50;;;0.61;62.54
42003;BME280;27693;50.506;30.832;2023-02-15T02:50:44;100603.78;;;0.60;62.67
42003;BME280;27693;50.506;30.832;2023-02-15T02:51:46;100611.52;;;0.66;63.18
42003;BME280;27693;50.506;30.832;2023-02-15T02:52:50;100604.68;;;0.67;62.47
42003;BME280;27693;50.506;30.832;2023-02-15T02:53:56;100610.58;;;0.58;61.98
42003;BME280;27693;50.506;30.832;2023-02-15T02:55:05;100612.25;;;0.53;62.23
42003;BME280;27693;50.506;30.832;2023-02-15T02:57:24;100616.58;;;0.60;62.46
42003;BME280;27693;50.506;30.832;2023-02-15T02:58:38;100630.97;;;0.48;62.60
42003;BME280;27693;50.506;30.832;2023-02-15T02:59:43;100624.16;;;0.47;62.90
42003;BME280;27693;50.506;30.832;2023-02-15T03:02:09;100623.32;;;0.50;62.91
42003;BME280;27693;50.506;30.832;2023-02-15T03:03:18;100626.63;;;0.41;62.39
42003;BME280;27693;50.506;30.832;2023-02-15T03:04:28;100621.49;;;0.40;62.27
42003;BME280;27693;50.506;30.832;2023-02-15T03:05:32;100629.16;;;0.38;62.20
42003;BME280;27693;50.506;30.832;2023-02-15T03:06:42;100624.95;;;0.45;62.27
42003;BME280;27693;50.506;30.832;2023-02-15T03:07:46;100622.38;;;0.40;61.74
42003;BME280;27693;50.506;30.832;2023-02-15T03:10:06;100627.68;;;0.62;62.43
42003;BME280;27693;50.506;30.832;2023-02-15T03:11:11;100615.69;;;0.55;62.35
42003;BME280;27693;50.506;30.832;2023-02-15T03:13:21;100620.81;;;0.55;62.04
42003;BME280;27693;50.506;30.832;2023-02-15T03:14:24;100626.78;;;0.55;62.14
42003;BME280;27693;50.506;30.832;2023-02-15T03:15:36;100625.83;;;0.45;62.09
42003;BME280;27693;50.506;30.832;2023-02-15T03:17:00;100625.89;;;0.52;62.25
42003;BME280;27693;50.506;30.832;2023-02-15T03:18:03;100623.22;;;0.42;62.05
42003;BME280;27693;50.506;30.832;2023-02-15T03:19:10;100627.45;;;0.37;62.12
42003;BME280;27693;50.506;30.832;2023-02-15T03:20:31;100628.34;;;0.42;62.31
42003;BME280;27693;50.506;30.832;2023-02-15T03:21:48;100630.08;;;0.45;61.88
42003;BME280;27693;50.506;30.832;2023-02-15T03:23:17;100628.33;;;0.39;61.96
42003;BME280;27693;50.506;30.832;2023-02-15T03:24:27;100627.55;;;0.46;62.81
42003;BME280;27693;50.506;30.832;2023-02-15T03:25:40;100632.73;;;0.53;62.03
42003;BME280;27693;50.506;30.832;2023-02-15T03:26:42;100632.73;;;0.54;61.99
42003;BME280;27693;50.506;30.832;2023-02-15T03:27:49;100629.33;;;0.54;61.95
42003;BME280;27693;50.506;30.832;2023-02-15T03:28:55;100630.97;;;0.48;61.84
42003;BME280;27693;50.506;30.832;2023-02-15T03:29:59;100632.69;;;0.50;61.89
42003;BME280;27693;50.506;30.832;2023-02-15T03:31:05;100625.77;;;0.39;61.46
42003;BME280;27693;50.506;30.832;2023-02-15T03:32:11;100626.66;;;0.43;61.77
42003;BME280;27693;50.506;30.832;2023-02-15T03:33:15;100629.23;;;0.44;61.71
42003;BME280;27693;50.506;30.832;2023-02-15T03:34:19;100634.36;;;0.46;61.60
42003;BME280;27693;50.506;30.832;2023-02-15T03:35:24;100639.53;;;0.51;61.73
42003;BME280;27693;50.506;30.832;2023-02-15T03:36:41;100635.90;;;0.30;61.66
42003;BME280;27693;50.506;30.832;2023-02-15T03:37:52;100635.78;;;0.21;61.95
42003;BME280;27693;50.506;30.832;2023-02-15T03:40:31;100636.01;;;0.39;62.07
42003;BME280;27693;50.506;30.832;2023-02-15T03:41:58;100624.06;;;0.41;61.93
42003;BME280;27693;50.506;30.832;2023-02-15T03:43:10;100630.91;;;0.42;61.98
42003;BME280;27693;50.506;30.832;2023-02-15T03:44:21;100625.83;;;0.45;62.03
42003;BME280;27693;50.506;30.832;2023-02-15T03:45:26;100620.72;;;0.48;61.75
42003;BME280;27693;50.506;30.832;2023-02-15T03:46:47;100632.02;;;0.68;61.53
42003;BME280;27693;50.506;30.832;2023-02-15T03:47:50;100625.88;;;0.50;61.16
42003;BME280;27693;50.506;30.832;2023-02-15T03:49:07;100624.94;;;0.42;60.80
42003;BME280;27693;50.506;30.832;2023-02-15T03:50:18;100625.83;;;0.45;61.05
42003;BME280;27693;50.506;30.832;2023-02-15T03:51:39;100622.44;;;0.50;60.73
42003;BME280;27693;50.506;30.832;2023-02-15T03:52:43;100627.56;;;0.50;60.54
42003;BME280;27693;50.506;30.832;2023-02-15T03:53:47;100626.72;;;0.49;60.58
42003;BME280;27693;50.506;30.832;2023-02-15T03:54:51;100625.89;;;0.53;60.61
42003;BME280;27693;50.506;30.832;2023-02-15T03:55:54;100636.17;;;0.55;61.08
42003;BME280;27693;50.506;30.832;2023-02-15T03:56:57;100631.06;;;0.58;60.99
42003;BME280;27693;50.506;30.832;2023-02-15T03:58:18;100633.63;;;0.58;60.87
42003;BME280;27693;50.506;30.832;2023-02-15T03:59:37;100634.58;;;0.69;61.32
42003;BME280;27693;50.506;30.832;2023-02-15T04:01:03;100650.66;;;0.54;60.76
42003;BME280;27693;50.506;30.832;2023-02-15T04:02:24;100637.02;;;0.54;60.79
42003;BME280;27693;50.506;30.832;2023-02-15T04:03:33;100648.92;;;0.50;60.83
42003;BME280;27693;50.506;30.832;2023-02-15T04:04:40;100639.34;;;0.32;60.45
42003;BME280;27693;50.506;30.832;2023-02-15T04:05:44;100649.47;;;0.23;61.13
42003;BME280;27693;50.506;30.832;2023-02-15T04:06:46;100639.21;;;0.20;61.27
42003;BME280;27693;50.506;30.832;2023-02-15T04:07:49;100644.41;;;0.29;61.44
42003;BME280;27693;50.506;30.832;2023-02-15T04:08:52;100638.56;;;0.39;61.68
42003;BME280;27693;50.506;30.832;2023-02-15T04:10:15;100644.55;;;0.41;61.49
42003;BME280;27693;50.506;30.832;2023-02-15T04:11:36;100652.27;;;0.43;61.58
42003;BME280;27693;50.506;30.832;2023-02-15T04:12:38;100646.13;;;0.30;61.55
42003;BME280;27693;50.506;30.832;2023-02-15T04:13:41;100646.13;;;0.30;61.55
42003;BME280;27693;50.506;30.832;2023-02-15T04:14:44;100647.92;;;0.36;61.39
42003;BME280;27693;50.506;30.832;2023-02-15T04:16:05;100646.19;;;0.33;61.25
42003;BME280;27693;50.506;30.832;2023-02-15T04:17:11;100648.80;;;0.38;61.70
42003;BME280;27693;50.506;30.832;2023-02-15T04:18:13;100645.34;;;0.34;61.53
42003;BME280;27693;50.506;30.832;2023-02-15T04:19:16;100647.08;;;0.37;61.40
42003;BME280;27693;50.506;30.832;2023-02-15T04:20:36;100656.42;;;0.33;61.52
42003;BME280;27693;50.506;30.832;2023-02-15T04:21:57;100642.81;;;0.39;61.39
42003;BME280;27693;50.506;30.832;2023-02-15T04:23:17;100653.05;;;0.37;61.01
42003;BME280;27693;50.506;30.832;2023-02-15T04:24:38;100640.30;;;0.42;61.48
42003;BME280;27693;50.506;30.832;2023-02-15T04:26:04;100653.98;;;0.44;60.85
42003;BME280;27693;50.506;30.832;2023-02-15T04:27:06;100650.54;;;0.42;60.65
42003;BME280;27693;50.506;30.832;2023-02-15T04:28:09;100658.21;;;0.40;60.77
42003;BME280;27693;50.506;30.832;2023-02-15T04:29:11;100661.63;;;0.42;60.54
42003;BME280;27693;50.506;30.832;2023-02-15T04:30:16;100649.53;;;0.29;60.76
42003;BME280;27693;50.506;30.832;2023-02-15T04:31:20;100649.53;;;0.29;60.76
42003;BME280;27693;50.506;30.832;2023-02-15T04:32:24;100649.59;;;0.35;60.73
42003;BME280;27693;50.506;30.832;2023-02-15T04:33:26;100648.81;;;0.39;60.57
42003;BME280;27693;50.506;30.832;2023-02-15T04:34:28;100651.38;;;0.42;60.82
42003;BME280;27693;50.506;30.832;2023-02-15T04:35:30;100647.99;;;0.45;60.52
42003;BME280;27693;50.506;30.832;2023-02-15T04:36:33;100647.10;;;0.41;59.89
42003;BME280;27693;50.506;30.832;2023-02-15T04:37:36;100659.88;;;0.37;59.59
42003;BME280;27693;50.506;30.832;2023-02-15T04:38:38;100639.21;;;0.20;59.51
42003;BME280;27693;50.506;30.832;2023-02-15T04:39:41;100642.54;;;0.12;59.65
42003;BME280;27693;50.506;30.832;2023-02-15T04:40:43;100660.58;;;0.23;60.46
42003;BME280;27693;50.506;30.832;2023-02-15T04:41:46;100650.35;;;0.25;60.51
42003;BME280;27693;50.506;30.832;2023-02-15T04:42:49;100656.42;;;0.33;60.43
42003;BME280;27693;50.506;30.832;2023-02-15T04:43:51;100660.59;;;0.25;60.07
42003;BME280;27693;50.506;30.832;2023-02-15T04:44:53;100651.23;;;0.27;60.26
42003;BME280;27693;50.506;30.832;2023-02-15T04:45:57;100662.33;;;0.29;60.08
42003;BME280;27693;50.506;30.832;2023-02-15T04:47:01;100658.92;;;0.28;60.18
42003;BME280;27693;50.506;30.832;2023-02-15T04:48:03;100663.22;;;0.31;60.36
42003;BME280;27693;50.506;30.832;2023-02-15T04:49:05;100659.77;;;0.29;60.21
42003;BME280;27693;50.506;30.832;2023-02-15T04:50:09;100656.42;;;0.33;60.60
42003;BME280;27693;50.506;30.832;2023-02-15T04:51:12;100646.25;;;0.39;60.98
42003;BME280;27693;50.506;30.832;2023-02-15T04:52:14;100652.22;;;0.40;60.70
42003;BME280;27693;50.506;30.832;2023-02-15T04:53:17;100657.34;;;0.40;60.65
42003;BME280;27693;50.506;30.832;2023-02-15T04:54:20;100654.63;;;0.26;61.08
42003;BME280;27693;50.506;30.832;2023-02-15T04:55:22;100659.75;;;0.26;60.91
42003;BME280;27693;50.506;30.832;2023-02-15T04:56:25;100663.92;;;0.19;61.07
42003;BME280;27693;50.506;30.832;2023-02-15T04:57:28;100668.22;;;0.22;61.36
42003;BME280;27693;50.506;30.832;2023-02-15T04:58:30;100669.11;;;0.25;61.44
42003;BME280;27693;50.506;30.832;2023-02-15T04:59:33;100655.42;;;0.22;61.40
42003;BME280;27693;50.506;30.832;2023-02-15T05:00:35;100674.22;;;0.24;61.63
42003;BME280;27693;50.506;30.832;2023-02-15T05:01:38;100672.50;;;0.23;61.53
42003;BME280;27693;50.506;30.832;2023-02-15T05:02:41;100676.78;;;0.24;61.66
42003;BME280;27693;50.506;30.832;2023-02-15T05:03:44;100671.73;;;0.30;61.51
42003;BME280;27693;50.506;30.832;2023-02-15T05:04:46;100678.63;;;0.34;61.64
42003;BME280;27693;50.506;30.832;2023-02-15T05:05:48;100676.84;;;0.27;61.26
42003;BME280;27693;50.506;30.832;2023-02-15T05:06:53;100681.78;;;0.14;61.44
42003;BME280;27693;50.506;30.832;2023-02-15T05:07:56;100674.98;;;0.17;61.85
42003;BME280;27693;50.506;30.832;2023-02-15T05:08:58;100679.19;;;0.10;62.07
42003;BME280;27693;50.506;30.832;2023-02-15T05:10:01;100679.95;;;0.03;61.99
42003;BME280;27693;50.506;30.832;2023-02-15T05:11:03;100679.91;;;0.01;62.36
42003;BME280;27693;50.506;30.832;2023-02-15T05:12:06;100678.23;;;0.02;62.63
42003;BME280;27693;50.506;30.832;2023-02-15T05:13:08;100692.82;;;0.09;62.68
42003;BME280;27693;50.506;30.832;2023-02-15T05:14:10;100683.48;;;0.12;62.29
42003;BME280;27693;50.506;30.832;2023-02-15T05:15:13;100684.17;;;0.01;62.17
42003;BME280;27693;50.506;30.832;2023-02-15T05:16:15;100688.53;;;0.06;62.33
42003;BME280;27693;50.506;30.832;2023-02-15T05:17:17;100691.94;;;0.08;62.34
42003;BME280;27693;50.506;30.832;2023-02-15T05:18:21;100687.48;;;-0.08;62.17
42003;BME280;27693;50.506;30.832;2023-02-15T05:19:24;100693.38;;;-0.12;62.36
42003;BME280;27693;50.506;30.832;2023-02-15T05:20:27;100702.03;;;-0.03;62.25
42003;BME280;27693;50.506;30.832;2023-02-15T05:21:30;100694.40;;;-0.01;62.04
42003;BME280;27693;50.506;30.832;2023-02-15T05:22:33;100688.30;;;-0.11;61.70
42003;BME280;27693;50.506;30.832;2023-02-15T05:23:35;100689.16;;;-0.10;61.89
42003;BME280;27693;50.506;30.832;2023-02-15T05:24:37;100688.39;;;-0.03;62.07
42003;BME280;27693;50.506;30.832;2023-02-15T05:25:58;100692.69;;;-0.01;61.79
42003;BME280;27693;50.506;30.832;2023-02-15T05:27:19;100686.67;;;-0.04;61.81
42003;BME280;27693;50.506;30.832;2023-02-15T05:28:40;100691.77;;;-0.07;62.12
42003;BME280;27693;50.506;30.832;2023-02-15T05:29:42;100689.23;;;-0.03;62.17
42003;BME280;27693;50.506;30.832;2023-02-15T05:30:58;100688.34;;;-0.06;62.21
42003;BME280;27693;50.506;30.832;2023-02-15T05:31:52;100695.92;;;-0.14;62.22
42003;BME280;27693;50.506;30.832;2023-02-15T05:32:54;100700.22;;;-0.11;62.56
42003;BME280;27693;50.506;30.832;2023-02-15T05:33:57;100695.18;;;-0.05;62.72
42003;BME280;27693;50.506;30.832;2023-02-15T05:34:59;100696.07;;;-0.03;62.56
42003;BME280;27693;50.506;30.832;2023-02-15T05:36:02;100701.19;;;-0.03;62.55
42003;BME280;27693;50.506;30.832;2023-02-15T05:37:07;100696.12;;;0.00;63.08
42003;BME280;27693;50.506;30.832;2023-02-15T05:38:09;100705.41;;;-0.05;62.74
42003;BME280;27693;50.506;30.832;2023-02-15T05:39:11;100702.09;;;0.02;63.24
42003;BME280;27693;50.506;30.832;2023-02-15T05:40:14;100696.96;;;-0.01;62.75
42003;BME280;27693;50.506;30.832;2023-02-15T05:41:16;100700.30;;;-0.05;62.84
42003;BME280;27693;50.506;30.832;2023-02-15T05:42:18;100700.38;;;0.01;63.09
42003;BME280;27693;50.506;30.832;2023-02-15T05:43:21;100698.76;;;0.06;63.18
42003;BME280;27693;50.506;30.832;2023-02-15T05:44:23;100711.63;;;0.12;63.25
42003;BME280;27693;50.506;30.832;2023-02-15T05:45:26;100706.52;;;0.12;63.17
42003;BME280;27693;50.506;30.832;2023-02-15T05:46:28;100710.66;;;0.04;63.24
42003;BME280;27693;50.506;30.832;2023-02-15T05:47:31;100696.91;;;-0.04;63.68
42003;BME280;27693;50.506;30.832;2023-02-15T05:48:34;100696.91;;;-0.04;63.68
42003;BME280;27693;50.506;30.832;2023-02-15T05:49:37;100704.64;;;0.01;63.92
42003;BME280;27693;50.506;30.832;2023-02-15T05:50:40;100709.85;;;0.08;64.00
42003;BME280;27693;50.506;30.832;2023-02-15T05:51:42;100712.47;;;0.11;64.05
42003;BME280;27693;50.506;30.832;2023-02-15T05:52:44;100704.72;;;0.07;63.16
42003;BME280;27693;50.506;30.832;2023-02-15T05:53:48;100709.02;;;0.09;63.48
42003;BME280;27693;50.506;30.832;2023-02-15T05:54:50;100711.64;;;0.14;63.20
42003;BME280;27693;50.506;30.832;2023-02-15T05:55:52;100726.98;;;0.12;63.21
42003;BME280;27693;50.506;30.832;2023-02-15T05:56:56;100708.17;;;0.09;63.15
42003;BME280;27693;50.506;30.832;2023-02-15T05:57:58;100717.59;;;0.13;63.01
42003;BME280;27693;50.506;30.832;2023-02-15T05:59:00;100710.87;;;0.20;63.04
42003;BME280;27693;50.506;30.832;2023-02-15T06:00:05;100714.97;;;0.08;62.87
42003;BME280;27693;50.506;30.832;2023-02-15T06:01:15;100712.39;;;0.05;62.99
42003;BME280;27693;50.506;30.832;2023-02-15T06:02:18;100715.86;;;0.10;62.93
42003;BME280;27693;50.506;30.832;2023-02-15T06:03:22;100715.94;;;0.17;63.20
42003;BME280;27693;50.506;30.832;2023-02-15T06:04:25;100717.66;;;0.18;62.91
42003;BME280;27693;50.506;30.832;2023-02-15T06:05:27;100717.66;;;0.18;62.61
42003;BME280;27693;50.506;30.832;2023-02-15T06:06:29;100729.56;;;0.15;62.52
42003;BME280;27693;50.506;30.832;2023-02-15T06:07:32;100720.20;;;0.16;62.54
42003;BME280;27693;50.506;30.832;2023-02-15T06:08:36;100720.23;;;0.19;62.61
42003;BME280;27693;50.506;30.832;2023-02-15T06:09:38;100722.72;;;0.13;62.24
42003;BME280;27693;50.506;30.832;2023-02-15T06:10:42;100724.38;;;0.09;62.46
42003;BME280;27693;50.506;30.832;2023-02-15T06:11:45;100728.59;;;0.07;62.42
42003;BME280;27693;50.506;30.832;2023-02-15T06:12:47;100726.04;;;0.07;62.77
42003;BME280;27693;50.506;30.832;2023-02-15T06:13:50;100721.05;;;0.17;62.90
42003;BME280;27693;50.506;30.832;2023-02-15T06:14:53;100721.97;;;0.22;62.59